createdAt,value
2022-11-22T00:00:18.561Z,99608.00
2022-11-22T00:02:45.071Z,99614.25
2022-11-22T00:05:11.784Z,99611.63
2022-11-22T00:07:38.613Z,99612.66
2022-11-22T00:10:08.807Z,99608.38
2022-11-22T00:12:35.289Z,99597.91
2022-11-22T00:15:01.646Z,99600.75
2022-11-22T00:17:27.885Z,99598.00
2022-11-22T00:19:53.986Z,99586.22
2022-11-22T00:22:20.089Z,99583.88
2022-11-22T00:24:46.431Z,99575.28
2022-11-22T00:27:12.625Z,99575.94
2022-11-22T00:29:38.719Z,99575.09
2022-11-22T00:32:04.885Z,99571.63
2022-11-22T00:34:30.979Z,99565.41
2022-11-22T00:36:57.098Z,99569.69
2022-11-22T00:39:23.193Z,99572.22
2022-11-22T00:41:49.295Z,99570.50
2022-11-22T00:44:15.401Z,99567.81
2022-11-22T00:46:41.506Z,99568.84
2022-11-22T00:49:07.775Z,99573.78
2022-11-22T00:51:34.026Z,99575.50
2022-11-22T05:21:09.205Z,99452.97
2022-11-22T05:23:54.261Z,99454.56
2022-11-22T05:26:21.310Z,99455.00
2022-11-22T05:28:47.461Z,99453.97
2022-11-22T05:31:23.178Z,99451.66
2022-11-22T05:33:51.194Z,99453.84
2022-11-22T05:36:17.850Z,99453.13
2022-11-22T05:38:43.969Z,99455.75
2022-11-22T05:41:12.062Z,99456.16
2022-11-22T05:43:39.050Z,99448.00
2022-11-22T05:46:24.427Z,99441.25
2022-11-22T05:48:51.345Z,99447.25
2022-11-22T05:51:20.136Z,99439.19
2022-11-22T05:53:46.791Z,99447.59
2022-11-22T05:56:15.874Z,99460.91
2022-11-22T05:58:42.419Z,99454.00
2022-11-22T06:01:11.239Z,99463.44
2022-11-22T06:03:37.922Z,99453.81
2022-11-22T06:06:05.835Z,99455.06
2022-11-22T06:08:34.176Z,99465.63
2022-11-22T06:11:14.330Z,99452.19
2022-11-22T06:13:42.340Z,99458.41
2022-11-22T06:16:09.052Z,99457.78
2022-11-22T06:18:35.172Z,99462.72
2022-11-22T06:21:07.421Z,99466.41
2022-11-22T06:23:34.119Z,99466.19
2022-11-22T06:26:03.241Z,99465.53
2022-11-22T06:28:31.382Z,99470.59
2022-11-22T06:31:01.755Z,99466.63
2022-11-22T06:33:27.854Z,99473.97
2022-11-22T06:35:53.950Z,99473.13
2022-11-22T06:38:20.144Z,99479.31
2022-11-22T06:40:46.284Z,99485.19
2022-11-22T06:43:12.400Z,99487.41
2022-11-22T06:45:38.485Z,99481.31
2022-11-22T06:48:05.031Z,99482.88
2022-11-22T06:50:31.135Z,99484.78
2022-11-22T06:52:57.239Z,99491.81
2022-11-22T06:55:49.208Z,99489.81
2022-11-22T06:58:09.473Z,99492.03
2022-11-22T07:00:35.566Z,99496.84
2022-11-22T07:03:01.705Z,99482.78
2022-11-22T07:05:27.833Z,99477.31
2022-11-22T07:07:55.864Z,99483.94
2022-11-22T07:10:25.324Z,99487.19
2022-11-22T07:12:51.427Z,99486.34
2022-11-22T07:15:17.712Z,99485.41
2022-11-22T07:17:43.809Z,99488.03
2022-11-22T07:20:10.203Z,99484.44
2022-11-22T07:22:36.306Z,99470.81
2022-11-22T07:25:02.414Z,99471.75
2022-11-22T07:27:28.521Z,99468.91
2022-11-22T07:29:54.636Z,99481.09
2022-11-22T07:32:20.736Z,99489.50
2022-11-22T07:34:46.834Z,99486.88
2022-11-22T07:37:12.951Z,99488.44
2022-11-22T07:39:39.154Z,99487.41
2022-11-22T07:42:05.298Z,99490.31
2022-11-22T07:44:31.515Z,99489.69
2022-11-22T07:46:57.612Z,99494.00
2022-11-22T07:49:23.720Z,99497.13
2022-11-22T07:51:49.821Z,99491.88
2022-11-22T07:54:15.929Z,99486.44
2022-11-22T07:56:42.023Z,99494.31
2022-11-22T07:59:08.187Z,99491.56
2022-11-22T08:01:34.339Z,99501.03
2022-11-22T08:04:00.457Z,99501.84
2022-11-22T08:06:26.550Z,99495.91
2022-11-22T08:08:57.026Z,99500.44
2022-11-22T08:11:26.535Z,99504.72
2022-11-22T08:13:52.713Z,99500.41
2022-11-22T08:16:18.865Z,99499.78
2022-11-22T08:18:49.535Z,99505.66
2022-11-22T08:21:17.091Z,99496.72
2022-11-22T08:23:44.109Z,99483.09
2022-11-22T08:26:13.024Z,99474.34
2022-11-22T08:28:40.095Z,99469.06
2022-11-22T08:31:10.560Z,99469.22
2022-11-22T08:33:36.806Z,99462.78
2022-11-22T08:36:02.943Z,99474.41
2022-11-22T08:38:29.075Z,99480.09
2022-11-22T08:40:55.324Z,99476.72
2022-11-22T08:43:21.433Z,99469.56
2022-11-22T08:45:58.854Z,99479.06
2022-11-22T08:48:29.958Z,99482.47
2022-11-22T08:50:59.139Z,99475.59
2022-11-22T08:53:26.058Z,99475.38
2022-11-22T08:55:52.806Z,99478.78
2022-11-22T08:58:19.141Z,99487.50
2022-11-22T09:00:45.256Z,99487.16
2022-11-22T09:03:11.603Z,99482.53
2022-11-22T09:08:24.036Z,99488.63
2022-11-22T09:10:50.253Z,99492.31
2022-11-22T09:13:16.355Z,99501.94
2022-11-22T09:15:42.451Z,99509.63
2022-11-22T09:18:08.549Z,99504.66
2022-11-22T09:20:34.643Z,99510.22
2022-11-22T09:23:02.160Z,99509.53
2022-11-22T09:25:28.254Z,99494.78
2022-11-22T09:27:54.348Z,99508.94
2022-11-22T09:30:21.767Z,99503.69
2022-11-22T09:32:47.854Z,99509.19
2022-11-22T09:35:17.193Z,99507.75
2022-11-22T09:37:43.292Z,99495.63
2022-11-22T09:40:10.087Z,99494.19
2022-11-22T09:42:49.150Z,99491.34
2022-11-22T09:45:30.521Z,99482.00
2022-11-22T09:48:14.074Z,99486.28
2022-11-22T09:51:01.909Z,99485.22
2022-11-22T09:53:45.643Z,99487.63
2022-11-22T09:56:14.779Z,99494.31
2022-11-22T09:58:55.001Z,99500.78
2022-11-22T10:01:31.256Z,99503.97
2022-11-22T10:04:25.331Z,99502.47
2022-11-22T10:07:05.846Z,99494.44
2022-11-22T10:09:42.458Z,99501.63
2022-11-22T10:12:59.388Z,99504.31
2022-11-22T10:15:57.596Z,99506.91
2022-11-22T10:18:34.529Z,99508.09
2022-11-22T10:21:00.625Z,99510.13
2022-11-22T10:23:27.566Z,99506.69
2022-11-22T10:26:06.077Z,99511.34
2022-11-22T10:28:39.237Z,99507.97
2022-11-22T10:31:17.851Z,99512.66
2022-11-22T10:34:06.045Z,99507.72
2022-11-22T10:36:46.984Z,99509.50
2022-11-22T10:39:45.927Z,99511.28
2022-11-22T10:42:44.573Z,99512.22
2022-11-22T10:45:29.521Z,99508.31
2022-11-22T10:48:37.809Z,99502.88
2022-11-22T10:51:40.719Z,99507.91
2022-11-22T10:54:24.209Z,99515.22
2022-11-22T10:57:03.395Z,99510.28
2022-11-22T11:00:16.128Z,99513.59
2022-11-22T11:02:48.035Z,99506.25
2022-11-22T11:05:20.703Z,99507.50
2022-11-22T11:07:53.812Z,99503.56
2022-11-22T11:10:34.303Z,99507.59
2022-11-22T11:13:21.667Z,99494.31
2022-11-22T11:15:55.936Z,99497.94
2022-11-22T11:18:57.394Z,99490.69
2022-11-22T11:21:23.589Z,99498.09
2022-11-22T11:23:49.690Z,99501.50
2022-11-22T11:26:20.821Z,99504.44
2022-11-22T11:28:46.939Z,99508.81
2022-11-22T11:31:13.797Z,99508.16
2022-11-22T11:33:41.638Z,99511.69
2022-11-22T11:36:15.810Z,99503.63
2022-11-22T11:38:44.862Z,99506.75
2022-11-22T11:41:28.852Z,99497.78
2022-11-22T11:43:59.854Z,99503.13
2022-11-22T11:46:28.417Z,99504.69
2022-11-22T11:49:09.364Z,99504.03
2022-11-22T11:51:38.696Z,99500.53
2022-11-22T11:54:44.875Z,99491.84
2022-11-22T11:57:11.852Z,99498.41
2022-11-22T11:59:37.881Z,99492.75
2022-11-22T12:02:17.096Z,99491.47
2022-11-22T12:04:59.113Z,99489.75
2022-11-22T12:07:27.656Z,99485.88
2022-11-22T12:09:55.868Z,99492.25
2022-11-22T12:12:45.558Z,99488.47
2022-11-22T12:15:21.254Z,99485.88
2022-11-22T12:17:55.436Z,99483.09
2022-11-22T12:20:41.502Z,99483.75
2022-11-22T12:23:23.742Z,99489.78
2022-11-22T12:25:55.333Z,99496.53
2022-11-22T12:28:23.972Z,99499.47
2022-11-22T12:31:13.602Z,99486.97
2022-11-22T12:33:44.072Z,99490.31
2022-11-22T12:36:35.358Z,99486.00
2022-11-22T12:39:04.163Z,99481.59
2022-11-22T12:41:32.556Z,99486.63
2022-11-22T12:44:02.350Z,99482.25
2022-11-22T12:46:46.812Z,99479.03
2022-11-22T12:49:24.881Z,99475.91
2022-11-22T12:52:12.307Z,99470.97
2022-11-22T12:54:47.131Z,99471.47
2022-11-22T12:57:24.875Z,99475.16
2022-11-22T13:00:05.679Z,99474.22
2022-11-22T13:02:43.280Z,99468.53
2022-11-22T13:05:15.245Z,99469.66
2022-11-22T13:07:57.302Z,99463.31
2022-11-22T13:10:45.143Z,99456.59
2022-11-22T13:13:19.670Z,99457.06
2022-11-22T13:15:47.325Z,99451.38
2022-11-22T13:18:16.863Z,99450.28
2022-11-22T13:20:53.856Z,99443.03
2022-11-22T13:23:29.170Z,99448.78
2022-11-22T13:26:14.687Z,99453.00
2022-11-22T13:28:42.110Z,99449.50
2022-11-22T13:31:17.483Z,99439.72
2022-11-22T13:33:52.733Z,99434.50
2022-11-22T13:36:35.327Z,99446.53
2022-11-22T13:39:05.491Z,99442.41
2022-11-22T13:41:34.634Z,99437.22
2022-11-22T13:44:24.750Z,99439.22
2022-11-22T13:47:05.026Z,99450.25
2022-11-22T13:49:48.189Z,99450.63
2022-11-22T13:52:15.061Z,99447.03
2022-11-22T13:54:53.169Z,99449.00
2022-11-22T13:57:29.454Z,99456.88
2022-11-22T14:00:16.814Z,99461.91
2022-11-22T14:02:48.364Z,99466.16
2022-11-22T14:05:20.013Z,99462.88
2022-11-22T14:07:50.486Z,99461.78
2022-11-22T14:11:01.817Z,99466.81
2022-11-22T14:13:52.368Z,99464.34
2022-11-22T14:16:36.144Z,99455.78
2022-11-22T14:19:28.452Z,99447.56
2022-11-22T14:22:07.418Z,99458.75
2022-11-22T14:25:00.648Z,99467.75
2022-11-22T14:27:45.350Z,99458.19
2022-11-22T14:30:18.796Z,99458.22
2022-11-22T14:33:04.712Z,99463.63
2022-11-22T14:35:32.552Z,99474.06
2022-11-22T14:38:00.047Z,99475.59
2022-11-22T14:40:31.734Z,99473.69
2022-11-22T14:43:04.061Z,99475.47
2022-11-22T14:45:43.591Z,99470.44
2022-11-22T14:48:21.745Z,99475.31
2022-11-22T14:50:51.938Z,99476.16
2022-11-22T14:53:36.050Z,99473.53
2022-11-22T14:56:12.407Z,99483.25
2022-11-22T14:58:44.651Z,99489.25
2022-11-22T15:01:23.032Z,99492.59
2022-11-22T15:09:11.675Z,99492.06
2022-11-22T15:09:23.873Z,99486.88
2022-11-22T15:10:44.578Z,99481.50
2022-11-22T15:13:50.522Z,99478.72
2022-11-22T15:59:46.978Z,99513.59
2022-11-22T16:02:16.367Z,99526.88
2022-11-22T16:06:08.004Z,99534.78
2022-11-22T16:07:44.947Z,99522.06
2022-11-22T16:10:21.614Z,99525.69
2022-11-22T16:12:47.800Z,99518.38
2022-11-22T16:15:36.236Z,99518.97
2022-11-22T16:18:12.998Z,99514.53
2022-11-22T16:20:40.992Z,99511.19
2022-11-22T16:23:10.029Z,99502.06
2022-11-22T16:25:42.041Z,99513.09
2022-11-22T16:28:22.585Z,99511.88
2022-11-22T16:30:48.786Z,99513.91
2022-11-22T16:33:15.058Z,99519.44
2022-11-22T16:35:41.161Z,99533.19
2022-11-22T16:38:07.624Z,99526.34
2022-11-22T16:40:41.478Z,99526.34
2022-11-22T16:43:15.382Z,99529.09
2022-11-22T16:45:41.487Z,99540.81
2022-11-22T16:48:30.835Z,99535.03
2022-11-22T16:51:02.480Z,99534.19
2022-11-22T16:53:37.437Z,99530.81
2022-11-22T16:56:03.666Z,99530.84
2022-11-22T16:58:29.808Z,99530.28
2022-11-22T17:00:55.993Z,99521.09
2022-11-22T17:03:25.653Z,99525.91
2022-11-22T17:05:51.888Z,99536.56
2022-11-22T17:08:19.469Z,99535.50
2022-11-22T17:10:47.988Z,99536.94
2022-11-22T17:13:20.253Z,99541.50
2022-11-22T17:15:47.309Z,99541.50
2022-11-22T17:18:13.996Z,99533.38
2022-11-22T17:20:40.251Z,99538.03
2022-11-22T17:23:11.705Z,99537.44
2022-11-22T17:25:37.815Z,99535.72
2022-11-22T17:28:03.928Z,99534.84
2022-11-22T17:30:30.066Z,99540.38
2022-11-22T17:32:56.181Z,99536.81
2022-11-22T17:35:22.308Z,99544.72
2022-11-22T17:37:52.643Z,99547.81
2022-11-22T17:40:18.888Z,99549.72
2022-11-22T17:42:45.010Z,99551.75
2022-11-22T17:45:11.268Z,99560.28
2022-11-22T17:47:37.364Z,99562.31
2022-11-22T17:50:03.720Z,99560.25
2022-11-22T17:52:29.877Z,99557.03
2022-11-22T17:54:58.360Z,99556.19
2022-11-22T17:57:28.141Z,99557.03
2022-11-22T17:59:54.246Z,99573.47
2022-11-22T18:02:20.631Z,99579.97
2022-11-22T18:04:46.733Z,99577.00
2022-11-22T18:07:13.095Z,99574.81
2022-11-22T18:09:39.258Z,99575.78
2022-11-22T18:12:05.690Z,99586.19
2022-11-22T18:14:31.825Z,99579.47
2022-11-22T18:17:00.403Z,99594.84
2022-11-22T18:19:26.521Z,99598.31
2022-11-22T18:21:52.891Z,99598.75
2022-11-22T18:24:19.004Z,99603.44
2022-11-22T18:26:45.206Z,99601.63
2022-11-22T18:31:59.562Z,99591.81
2022-11-22T18:34:25.789Z,99596.13
2022-11-22T18:36:56.366Z,99603.53
2022-11-22T18:39:26.921Z,99600.91
2022-11-22T18:41:53.210Z,99604.63
2022-11-22T18:44:19.641Z,99600.47
2022-11-22T18:46:46.670Z,99608.50
2022-11-22T18:49:12.782Z,99604.19
2022-11-22T18:51:38.912Z,99600.97
2022-11-22T18:54:05.275Z,99605.13
2022-11-22T18:56:31.497Z,99613.84
2022-11-22T18:58:57.614Z,99610.94
2022-11-22T19:01:24.129Z,99605.56
2022-11-22T19:03:50.278Z,99611.09
2022-11-22T19:06:18.132Z,99603.03
2022-11-22T19:08:45.955Z,99602.59
2022-11-22T19:11:12.596Z,99601.59
2022-11-22T19:13:40.638Z,99607.38
2022-11-22T19:16:08.405Z,99602.31
2022-11-22T19:18:40.106Z,99611.19
2022-11-22T19:21:17.701Z,99607.78
2022-11-22T19:23:43.984Z,99605.13
2022-11-22T19:26:12.502Z,99603.97
2022-11-22T19:28:38.632Z,99609.84
2022-11-22T19:31:07.892Z,99616.72
2022-11-22T19:33:34.690Z,99620.19
2022-11-22T19:36:03.586Z,99616.00
2022-11-22T19:38:29.771Z,99613.38
2022-11-22T19:40:55.964Z,99611.34
2022-11-22T19:43:22.326Z,99614.25
2022-11-22T19:45:48.958Z,99618.44
2022-11-22T19:48:17.405Z,99627.31
2022-11-22T19:50:44.362Z,99622.28
2022-11-22T19:53:10.973Z,99619.53
2022-11-22T19:55:43.608Z,99617.72
2022-11-22T19:58:11.473Z,99620.84
2022-11-22T20:00:37.608Z,99628.16
2022-11-22T20:03:03.784Z,99624.66
2022-11-22T20:05:31.924Z,99625.81
2022-11-22T20:07:58.566Z,99635.59
2022-11-22T20:10:25.215Z,99632.22
2022-11-22T20:12:51.534Z,99629.34
2022-11-22T20:15:18.584Z,99624.50
2022-11-22T20:17:44.730Z,99626.94
2022-11-22T20:20:10.998Z,99620.25
2022-11-22T20:22:37.222Z,99622.16
2022-11-22T20:25:05.249Z,99627.44
2022-11-22T20:27:31.917Z,99632.66
2022-11-22T20:30:00.151Z,99636.50
2022-11-22T20:32:26.698Z,99638.72
2022-11-22T20:34:52.801Z,99640.88
2022-11-22T20:37:18.934Z,99639.44
2022-11-22T20:39:45.058Z,99634.06
2022-11-22T20:42:33.641Z,99641.31
2022-11-22T20:44:58.145Z,99641.44
2022-11-22T20:47:24.262Z,99644.31
2022-11-22T20:49:50.392Z,99643.81
2022-11-22T20:52:16.501Z,99646.47
2022-11-22T20:54:42.606Z,99645.13
2022-11-22T20:57:08.738Z,99636.72
2022-11-22T20:59:34.848Z,99635.06
2022-11-22T21:02:02.959Z,99631.13
2022-11-22T21:04:31.354Z,99630.03
2022-11-22T21:06:59.308Z,99628.97
2022-11-22T21:09:25.418Z,99633.66
2022-11-22T21:11:51.614Z,99641.47
2022-11-22T21:14:17.738Z,99632.34
2022-11-22T21:16:43.874Z,99629.69
2022-11-22T21:19:09.992Z,99634.56
2022-11-22T21:21:36.491Z,99633.25
2022-11-22T21:24:04.326Z,99633.38
2022-11-22T21:26:30.922Z,99628.59
2022-11-22T21:28:57.738Z,99633.53
2022-11-22T21:31:24.147Z,99633.19
2022-11-22T21:33:50.722Z,99625.53
2022-11-22T21:36:17.911Z,99625.66
2022-11-22T21:38:45.634Z,99633.34
2022-11-22T21:44:01.182Z,99621.19
2022-11-22T21:46:27.306Z,99621.09
2022-11-22T21:48:55.889Z,99622.63
2022-11-22T21:51:23.230Z,99617.34
2022-11-22T21:53:49.346Z,99615.06
2022-11-22T21:56:15.500Z,99622.84
2022-11-22T21:58:42.484Z,99619.38
2022-11-22T22:01:13.839Z,99622.97
2022-11-22T22:03:40.611Z,99622.97
2022-11-22T22:06:07.001Z,99615.56
2022-11-22T22:08:33.374Z,99610.50
2022-11-22T22:11:01.011Z,99607.88
2022-11-22T22:13:28.904Z,99606.16
2022-11-22T22:15:57.340Z,99619.59
2022-11-22T22:18:23.528Z,99632.13
2022-11-22T22:21:02.211Z,99646.03
2022-11-22T22:23:28.549Z,99651.28
2022-11-22T22:26:02.221Z,99655.47
2022-11-22T22:28:33.048Z,99668.56
2022-11-22T22:31:09.720Z,99666.94
2022-11-22T22:33:37.281Z,99658.56
2022-11-22T22:36:04.709Z,99660.75
2022-11-22T22:38:31.044Z,99651.47
2022-11-22T22:40:58.932Z,99656.69
2022-11-22T22:43:26.064Z,99661.09
2022-11-22T22:45:52.479Z,99657.31
2022-11-22T22:48:19.067Z,99652.03
2022-11-22T22:50:45.467Z,99645.44
2022-11-22T22:53:11.596Z,99643.63
2022-11-22T22:55:37.794Z,99656.47
2022-11-22T22:58:04.317Z,99646.38
2022-11-22T23:00:30.548Z,99653.47
2022-11-22T23:02:56.702Z,99648.41
2022-11-22T23:05:23.301Z,99653.94
2022-11-22T23:07:49.483Z,99649.50
2022-11-22T23:10:15.938Z,99655.88
2022-11-22T23:12:42.073Z,99648.56
2022-11-22T23:15:08.513Z,99648.91
2022-11-22T23:17:34.638Z,99647.59
2022-11-22T23:20:00.776Z,99653.69
2022-11-22T23:22:26.888Z,99649.13
2022-11-22T23:24:53.126Z,99656.94
2022-11-22T23:27:19.292Z,99648.78
2022-11-22T23:29:45.394Z,99641.69
2022-11-22T23:32:11.546Z,99646.63
2022-11-22T23:34:37.689Z,99639.81
2022-11-22T23:37:03.819Z,99637.53
2022-11-22T23:39:30.424Z,99635.97
2022-11-22T23:41:56.769Z,99638.38
2022-11-22T23:44:22.869Z,99635.63
2022-11-22T23:46:48.988Z,99634.03
2022-11-22T23:49:15.107Z,99639.09
2022-11-22T23:51:41.289Z,99638.97
2022-11-22T23:54:08.961Z,99630.44
2022-11-22T23:56:36.431Z,99628.78
2022-11-22T23:59:05.027Z,99635.84
